Time;durP1;ratioP1;P1;durP2;ratioP2;P2;SDS_P1;SDS_P2;PMS_P1;PMS_P2;Temp;Humidity;BMP_temperature;BMP_pressure;BME280_temperature;BME280_humidity;BME280_pressure;Samples;Min_cycle;Max_cycle;Signal;HPM_P1;HPM_P2
2022/03/11 00:01:12;;;;;;;;;;;5.10;69.10;;;;;;5093473;28;20003;-87
2022/03/11 00:03:37;;;;;;;;;;;5.10;69.00;;;;;;5099972;23;20344;-87
2022/03/11 00:06:03;;;;;;;;;;;5.10;69.10;;;;;;5092551;28;19946;-86
2022/03/11 00:08:28;;;;;;;;;;;5.10;69.70;;;;;;5092048;28;19912;-86
2022/03/11 00:10:54;;;;;;;;;;;5.10;69.90;;;;;;5092726;28;19912;-87
2022/03/11 00:13:19;;;;;;;;;;;5.20;69.70;;;;;;5093248;28;19950;-86
2022/03/11 00:15:45;;;;;;;;;;;5.20;69.80;;;;;;5093471;28;19959;-86
2022/03/11 00:18:11;;;;;;;;;;;5.20;70.20;;;;;;5092878;28;20001;-87
2022/03/11 00:20:36;;;;;;;;;;;5.40;70.20;;;;;;5093174;28;19908;-87
2022/03/11 00:23:02;;;;;;;;;;;5.40;70.20;;;;;;5093178;28;19908;-87
2022/03/11 00:25:29;;;;;;;;;;;5.40;70.20;;;;;;5092841;28;19920;-87
2022/03/11 00:27:55;;;;;;;;;;;5.40;70.60;;;;;;5093134;28;20462;-86
2022/03/11 00:30:20;;;;;;;;;;;5.30;71.10;;;;;;5093030;28;19908;-86
2022/03/11 00:32:47;;;;;;;;;;;5.40;71.80;;;;;;5093067;28;19915;-86
2022/03/11 00:35:13;;;;;;;;;;;5.30;72.10;;;;;;5092688;28;19918;-86
2022/03/11 00:37:39;;;;;;;;;;;5.30;72.50;;;;;;5094145;28;19908;-87
2022/03/11 00:40:05;;;;;;;;;;;5.30;73.00;;;;;;5096863;28;19912;-86
2022/03/11 00:42:31;;;;;;;;;;;5.30;73.30;;;;;;5096632;28;19923;-87
2022/03/11 00:44:57;;;;;;;;;;;5.20;73.50;;;;;;5096685;28;19912;-87
2022/03/11 00:47:22;;;;;;;;;;;5.10;73.90;;;;;;5079160;28;19931;-86
2022/03/11 00:49:48;;;;;;;;;;;5.10;74.40;;;;;;5097022;28;19977;-86
2022/03/11 00:52:13;;;;;;;;;;;5.00;74.90;;;;;;5096950;28;20010;-87
2022/03/11 00:54:39;;;;;;;;;;;5.10;74.70;;;;;;5096671;28;20000;-86
2022/03/11 00:57:04;;;;;;;;;;;5.00;74.50;;;;;;5096868;28;19915;-86
2022/03/11 00:59:30;;;;;;;;;;;4.90;74.70;;;;;;5096801;28;19912;-86
2022/03/11 01:01:56;;;;;;;;;;;4.70;75.00;;;;;;5095997;28;19916;-87
2022/03/11 01:04:21;;;;;;;;;;;4.50;75.50;;;;;;5095842;28;20365;-86
2022/03/11 01:06:47;;;;;;;;;;;4.70;76.40;;;;;;5096587;28;19912;-87
2022/03/11 01:09:13;;;;;;;;;;;4.70;76.30;;;;;;5096614;28;19962;-87
2022/03/11 01:11:39;;;;;;;;;;;4.80;76.30;;;;;;5095752;28;19995;-87
2022/03/11 01:14:04;;;;;;;;;;;4.80;76.50;;;;;;5096557;28;19908;-86
2022/03/11 01:16:30;;;;;;;;;;;4.90;77.10;;;;;;5096506;28;19934;-86
2022/03/11 01:18:55;;;;;;;;;;;4.90;76.60;;;;;;5096470;28;20290;-86
2022/03/11 01:21:21;;;;;;;;;;;4.90;77.00;;;;;;5096320;28;20010;-86
2022/03/11 01:23:47;;;;;;;;;;;4.90;77.60;;;;;;5096080;28;20332;-87
2022/03/11 01:26:12;;;;;;;;;;;5.00;77.60;;;;;;5095956;28;20334;-87
2022/03/11 01:28:42;;;;;;;;;;;5.10;77.70;;;;;;5096001;28;19919;-87
2022/03/11 01:31:08;;;;;;;;;;;5.20;77.80;;;;;;5095655;28;19912;-87
2022/03/11 01:33:34;;;;;;;;;;;5.30;77.70;;;;;;5096169;28;19908;-86
2022/03/11 01:35:59;;;;;;;;;;;5.40;77.60;;;;;;5095794;28;19918;-87
2022/03/11 01:38:25;;;;;;;;;;;5.40;77.70;;;;;;5096094;28;19912;-87
2022/03/11 01:40:50;;;;;;;;;;;5.50;77.70;;;;;;5095522;28;20294;-87
2022/03/11 01:43:17;;;;;;;;;;;5.60;77.70;;;;;;5095991;28;19993;-87
2022/03/11 01:45:43;;;;;;;;;;;5.70;77.20;;;;;;5095525;28;20078;-87
2022/03/11 01:48:10;;;;;;;;;;;5.80;76.90;;;;;;5095873;28;20417;-87
2022/03/11 01:50:38;;;;;;;;;;;5.80;76.80;;;;;;5094982;28;20385;-87
2022/03/11 01:53:03;;;;;;;;;;;5.90;76.80;;;;;;5095802;28;19908;-87
2022/03/11 01:55:29;;;;;;;;;;;6.00;76.20;;;;;;5095510;28;19918;-87
2022/03/11 01:57:55;;;;;;;;;;;6.10;75.40;;;;;;5095705;28;19916;-87
2022/03/11 02:00:20;;;;;;;;;;;6.10;75.40;;;;;;5095640;28;19958;-87
2022/03/11 02:02:46;;;;;;;;;;;6.10;75.50;;;;;;5095185;28;20305;-86
2022/03/11 02:05:14;;;;;;;;;;;6.00;75.40;;;;;;5095472;28;20346;-87
2022/03/11 02:07:40;;;;;;;;;;;6.00;75.10;;;;;;5095498;28;19991;-87
2022/03/11 02:10:06;;;;;;;;;;;6.10;75.00;;;;;;5095086;28;19943;-86
2022/03/11 02:12:34;;;;;;;;;;;6.10;74.90;;;;;;5094920;28;19951;-87
2022/03/11 02:15:00;;;;;;;;;;;6.00;74.90;;;;;;5095335;28;19930;-87
2022/03/11 02:17:25;;;;;;;;;;;6.00;75.10;;;;;;5095316;28;20352;-87
2022/03/11 02:19:51;;;;;;;;;;;6.20;74.70;;;;;;5095259;28;19915;-87
2022/03/11 02:22:21;;;;;;;;;;;6.30;73.90;;;;;;5094981;28;20003;-87
2022/03/11 02:24:47;;;;;;;;;;;6.30;73.60;;;;;;5095157;28;19957;-87
2022/03/11 02:27:12;;;;;;;;;;;6.20;74.20;;;;;;5093429;28;19916;-87
2022/03/11 02:29:38;;;;;;;;;;;6.00;75.50;;;;;;5092828;28;20006;-87
2022/03/11 02:32:04;;;;;;;;;;;6.00;76.30;;;;;;5094988;28;19908;-87
2022/03/11 02:34:29;;;;;;;;;;;6.10;75.40;;;;;;5094988;28;20016;-87
2022/03/11 02:36:55;;;;;;;;;;;6.30;73.90;;;;;;5094603;28;19916;-87
2022/03/11 02:39:20;;;;;;;;;;;6.40;73.10;;;;;;5094502;28;19951;-87
2022/03/11 02:41:49;;;;;;;;;;;6.40;73.30;;;;;;5094830;28;19963;-87
2022/03/11 02:44:15;;;;;;;;;;;6.30;73.70;;;;;;5094818;28;19908;-87
2022/03/11 02:46:40;;;;;;;;;;;6.30;73.60;;;;;;5094339;28;19922;-87
2022/03/11 02:49:06;;;;;;;;;;;6.40;72.80;;;;;;5094373;28;20306;-86
2022/03/11 02:51:32;;;;;;;;;;;6.20;74.50;;;;;;5094231;28;19912;-86
2022/03/11 02:53:57;;;;;;;;;;;6.10;74.60;;;;;;5094611;28;19908;-86
2022/03/11 02:56:23;;;;;;;;;;;6.20;73.50;;;;;;5094142;28;20415;-87
2022/03/11 02:58:49;;;;;;;;;;;6.30;73.20;;;;;;5094546;28;19908;-87
2022/03/11 03:01:14;;;;;;;;;;;6.30;73.10;;;;;;5094447;28;19995;-86
2022/03/11 03:03:40;;;;;;;;;;;6.20;73.70;;;;;;5094366;28;20099;-86
2022/03/11 03:06:06;;;;;;;;;;;6.20;74.00;;;;;;5094003;28;19927;-87
2022/03/11 03:08:32;;;;;;;;;;;6.40;73.50;;;;;;5094031;28;19916;-87
2022/03/11 03:10:57;;;;;;;;;;;6.50;72.40;;;;;;5094071;28;19911;-87
2022/03/11 03:13:23;;;;;;;;;;;6.60;71.70;;;;;;5093902;28;19950;-87
2022/03/11 03:15:49;;;;;;;;;;;6.70;70.70;;;;;;5094015;28;19908;-87
2022/03/11 03:18:14;;;;;;;;;;;6.70;70.20;;;;;;5094055;28;19908;-87
2022/03/11 03:20:40;;;;;;;;;;;6.80;69.80;;;;;;5094075;28;19908;-87
2022/03/11 03:23:05;;;;;;;;;;;6.80;69.70;;;;;;5094061;28;19912;-87
2022/03/11 03:25:31;;;;;;;;;;;6.90;69.40;;;;;;5093974;28;19942;-87
2022/03/11 03:27:56;;;;;;;;;;;6.90;69.10;;;;;;5093374;28;19912;-87
2022/03/11 03:30:22;;;;;;;;;;;6.90;68.60;;;;;;5093860;28;19908;-87
2022/03/11 03:32:47;;;;;;;;;;;6.80;68.70;;;;;;5093858;28;20374;-87
2022/03/11 03:35:13;;;;;;;;;;;6.70;69.00;;;;;;5093859;28;19995;-87
2022/03/11 03:37:39;;;;;;;;;;;6.60;69.60;;;;;;5093489;28;20002;-87
2022/03/11 03:40:05;;;;;;;;;;;6.60;70.00;;;;;;5093800;28;20163;-86
2022/03/11 03:42:31;;;;;;;;;;;6.40;69.90;;;;;;5093400;28;19969;-87
2022/03/11 03:44:56;;;;;;;;;;;6.40;69.80;;;;;;5093622;28;19916;-87
2022/03/11 03:47:22;;;;;;;;;;;6.40;70.20;;;;;;5093351;28;20024;-87
2022/03/11 03:49:48;;;;;;;;;;;6.40;70.00;;;;;;5093649;28;20357;-87
2022/03/11 03:52:13;;;;;;;;;;;6.40;69.80;;;;;;5093588;28;19908;-87
2022/03/11 03:54:39;;;;;;;;;;;6.40;69.80;;;;;;5093569;28;19908;-87
2022/03/11 03:57:05;;;;;;;;;;;6.40;69.60;;;;;;5092903;28;19920;-87
2022/03/11 03:59:30;;;;;;;;;;;6.40;69.20;;;;;;5093471;28;19915;-87
2022/03/11 04:01:56;;;;;;;;;;;6.40;68.80;;;;;;5093453;28;19947;-87
2022/03/11 04:04:21;;;;;;;;;;;6.50;68.40;;;;;;5092919;28;19920;-87
2022/03/11 04:06:47;;;;;;;;;;;6.60;68.00;;;;;;5093109;28;20297;-87
2022/03/11 04:09:12;;;;;;;;;;;6.70;67.60;;;;;;5093285;28;19908;-87
2022/03/11 04:11:39;;;;;;;;;;;6.70;67.30;;;;;;5092780;28;20370;-87
2022/03/11 04:14:04;;;;;;;;;;;6.70;67.50;;;;;;5092652;28;19912;-87
2022/03/11 04:16:30;;;;;;;;;;;6.80;66.40;;;;;;5093529;28;19919;-86
2022/03/11 04:18:56;;;;;;;;;;;6.80;66.20;;;;;;5093238;28;19912;-86
2022/03/11 04:21:21;;;;;;;;;;;6.70;66.90;;;;;;5092912;28;20443;-87
2022/03/11 04:23:48;;;;;;;;;;;6.70;66.80;;;;;;5093166;28;19915;-87
2022/03/11 04:26:14;;;;;;;;;;;6.70;66.50;;;;;;5093080;28;19966;-87
2022/03/11 04:28:39;;;;;;;;;;;6.70;66.50;;;;;;5092916;28;20377;-87
2022/03/11 04:31:07;;;;;;;;;;;6.60;66.90;;;;;;5093005;28;19908;-87
2022/03/11 04:33:33;;;;;;;;;;;6.60;67.00;;;;;;5092798;28;19959;-87
2022/03/11 04:35:59;;;;;;;;;;;6.70;66.30;;;;;;5093075;28;19909;-87
2022/03/11 04:38:24;;;;;;;;;;;6.80;66.30;;;;;;5093264;28;19990;-87
2022/03/11 04:40:50;;;;;;;;;;;6.90;65.80;;;;;;5093015;28;19908;-87
2022/03/11 04:43:15;;;;;;;;;;;6.90;65.30;;;;;;5092604;28;19976;-87
2022/03/11 04:45:41;;;;;;;;;;;7.00;64.80;;;;;;5092946;28;20011;-87
2022/03/11 04:48:06;;;;;;;;;;;7.10;64.60;;;;;;5093253;28;19955;-87
2022/03/11 04:50:32;;;;;;;;;;;7.20;64.50;;;;;;5092962;28;20364;-87
2022/03/11 04:52:58;;;;;;;;;;;7.30;64.50;;;;;;5092646;28;20327;-87
2022/03/11 04:55:23;;;;;;;;;;;7.30;64.60;;;;;;5092930;28;20009;-87
2022/03/11 04:57:49;;;;;;;;;;;7.20;64.70;;;;;;5092668;28;20385;-87
2022/03/11 05:00:15;;;;;;;;;;;7.00;65.10;;;;;;5092888;28;19915;-86
2022/03/11 05:02:44;;;;;;;;;;;6.90;65.10;;;;;;5092787;28;19912;-86
2022/03/11 05:05:13;;;;;;;;;;;6.90;65.30;;;;;;5092572;28;19920;-86
2022/03/11 05:07:39;;;;;;;;;;;6.80;65.50;;;;;;5092802;28;20320;-86
2022/03/11 05:10:05;;;;;;;;;;;6.70;65.90;;;;;;5092763;28;19916;-87
2022/03/11 05:12:31;;;;;;;;;;;6.70;66.10;;;;;;5091980;28;19923;-87
2022/03/11 05:14:57;;;;;;;;;;;6.70;66.20;;;;;;5092742;28;19912;-87
2022/03/11 05:17:22;;;;;;;;;;;6.60;66.40;;;;;;5092722;28;19908;-87
2022/03/11 05:19:48;;;;;;;;;;;6.60;66.60;;;;;;5092929;28;19908;-86
2022/03/11 05:22:13;;;;;;;;;;;6.60;66.70;;;;;;5092576;28;19916;-87
2022/03/11 05:24:39;;;;;;;;;;;6.60;66.60;;;;;;5093348;28;19914;-87
2022/03/11 05:27:05;;;;;;;;;;;6.50;67.30;;;;;;5096062;28;19916;-87
2022/03/11 05:29:32;;;;;;;;;;;6.60;67.00;;;;;;5096230;28;19920;-86
2022/03/11 05:31:58;;;;;;;;;;;6.80;66.30;;;;;;5095763;28;20262;-86
2022/03/11 05:34:24;;;;;;;;;;;6.90;65.70;;;;;;5096176;28;19916;-87
2022/03/11 05:36:49;;;;;;;;;;;7.00;65.10;;;;;;5096122;28;20060;-87
2022/03/11 05:39:15;;;;;;;;;;;7.00;65.00;;;;;;5096358;28;20376;-87
2022/03/11 05:41:40;;;;;;;;;;;7.00;64.80;;;;;;5095821;28;20316;-86
2022/03/11 05:44:06;;;;;;;;;;;6.90;65.10;;;;;;5096204;28;19935;-86
2022/03/11 05:46:32;;;;;;;;;;;6.80;65.40;;;;;;5095918;28;20258;-87
2022/03/11 05:48:57;;;;;;;;;;;6.70;65.30;;;;;;5095899;28;19915;-86
2022/03/11 05:51:23;;;;;;;;;;;6.70;65.70;;;;;;5095525;28;19908;-87
2022/03/11 05:53:48;;;;;;;;;;;6.60;65.80;;;;;;5094206;28;19920;-86
2022/03/11 05:56:14;;;;;;;;;;;6.70;65.70;;;;;;5094866;28;20349;-87
2022/03/11 05:58:39;;;;;;;;;;;6.60;65.50;;;;;;5095165;28;19965;-87
2022/03/11 06:01:06;;;;;;;;;;;6.60;65.60;;;;;;5073604;28;20006;-87
2022/03/11 06:03:31;;;;;;;;;;;6.60;65.80;;;;;;5084791;28;19920;-87
2022/03/11 06:05:57;;;;;;;;;;;6.70;66.00;;;;;;5086145;28;19920;-87
2022/03/11 06:08:22;;;;;;;;;;;6.80;66.20;;;;;;5093739;28;19919;-87
2022/03/11 06:10:48;;;;;;;;;;;6.80;65.70;;;;;;5093214;28;20360;-87
2022/03/11 06:13:14;;;;;;;;;;;6.90;65.80;;;;;;5084289;28;19913;-87
2022/03/11 06:15:42;;;;;;;;;;;7.00;65.40;;;;;;5088993;28;20019;-87
2022/03/11 06:18:09;;;;;;;;;;;7.00;64.40;;;;;;5092970;28;19949;-87
2022/03/11 06:20:35;;;;;;;;;;;6.90;65.50;;;;;;5086568;28;19912;-87
2022/03/11 06:23:01;;;;;;;;;;;6.80;66.10;;;;;;5076762;28;20259;-86
2022/03/11 06:25:27;;;;;;;;;;;6.70;66.40;;;;;;5073784;28;19923;-87
2022/03/11 06:27:52;;;;;;;;;;;6.60;66.70;;;;;;5084223;28;19912;-87
2022/03/11 06:30:18;;;;;;;;;;;6.60;67.20;;;;;;5093487;28;19912;-87
2022/03/11 06:32:45;;;;;;;;;;;6.70;66.60;;;;;;5091963;28;19912;-87
2022/03/11 06:35:13;;;;;;;;;;;6.70;66.50;;;;;;5085565;28;19935;-87
2022/03/11 06:37:39;;;;;;;;;;;6.70;66.60;;;;;;5090156;28;19959;-87
2022/03/11 06:40:05;;;;;;;;;;;6.70;66.40;;;;;;5088060;28;19956;-87
2022/03/11 06:42:38;;;;;;;;;;;6.80;65.80;;;;;;5079282;28;19920;-87
2022/03/11 06:45:05;;;;;;;;;;;6.80;65.30;;;;;;5089399;28;20287;-87
2022/03/11 06:47:30;;;;;;;;;;;6.90;65.10;;;;;;5084836;28;19913;-87
2022/03/11 06:49:56;;;;;;;;;;;6.90;65.10;;;;;;5089464;28;19920;-87
2022/03/11 06:52:22;;;;;;;;;;;7.10;64.80;;;;;;5084158;28;19940;-87
2022/03/11 06:54:47;;;;;;;;;;;7.30;63.80;;;;;;5087362;28;19923;-87
2022/03/11 06:57:15;;;;;;;;;;;7.40;63.00;;;;;;5082640;28;19942;-87
2022/03/11 06:59:42;;;;;;;;;;;7.60;62.90;;;;;;5080442;28;19912;-87
2022/03/11 07:02:08;;;;;;;;;;;7.70;62.70;;;;;;5065866;28;20331;-87
2022/03/11 07:04:34;;;;;;;;;;;7.80;62.10;;;;;;5081067;28;19924;-87
2022/03/11 07:06:59;;;;;;;;;;;7.90;62.00;;;;;;5081559;28;19920;-86
2022/03/11 07:09:25;;;;;;;;;;;7.70;62.40;;;;;;5082618;28;19912;-87
2022/03/11 07:11:57;;;;;;;;;;;7.60;62.50;;;;;;5086496;28;19916;-87
2022/03/11 07:14:23;;;;;;;;;;;7.40;62.80;;;;;;5087904;28;19913;-86
2022/03/11 07:16:52;;;;;;;;;;;7.40;62.90;;;;;;5085319;28;19919;-86
2022/03/11 07:19:20;;;;;;;;;;;7.40;62.80;;;;;;5080364;28;19920;-87
2022/03/11 07:21:46;;;;;;;;;;;7.40;62.60;;;;;;5083818;28;19916;-87
2022/03/11 07:24:11;;;;;;;;;;;7.40;63.00;;;;;;5078530;28;19913;-87
2022/03/11 07:26:37;;;;;;;;;;;7.50;63.40;;;;;;5091963;28;19923;-87
2022/03/11 07:29:03;;;;;;;;;;;7.50;62.90;;;;;;5088923;28;20018;-87
2022/03/11 07:31:28;;;;;;;;;;;7.60;62.20;;;;;;5086755;28;19943;-87
2022/03/11 07:33:57;;;;;;;;;;;7.70;61.70;;;;;;5082391;28;19912;-87
2022/03/11 07:36:23;;;;;;;;;;;7.80;61.80;;;;;;5084836;28;19916;-87
2022/03/11 07:38:51;;;;;;;;;;;7.90;61.30;;;;;;5081121;28;19916;-87
2022/03/11 07:41:17;;;;;;;;;;;8.00;60.00;;;;;;5093988;28;20013;-87
2022/03/11 07:43:44;;;;;;;;;;;8.10;59.20;;;;;;5088400;28;20399;-86
2022/03/11 07:46:11;;;;;;;;;;;8.10;59.80;;;;;;5084822;28;19916;-86
2022/03/11 07:48:36;;;;;;;;;;;8.10;58.60;;;;;;5083604;28;19917;-87
2022/03/11 07:51:02;;;;;;;;;;;8.10;58.20;;;;;;5082384;28;19912;-87
2022/03/11 07:53:28;;;;;;;;;;;8.10;59.00;;;;;;5088126;28;20335;-87
2022/03/11 07:55:54;;;;;;;;;;;8.00;58.40;;;;;;5086448;28;19912;-87
2022/03/11 07:58:21;;;;;;;;;;;8.10;58.70;;;;;;5081671;28;19913;-87
2022/03/11 08:00:48;;;;;;;;;;;8.20;58.80;;;;;;5087817;28;19969;-87
2022/03/11 08:03:14;;;;;;;;;;;8.30;57.60;;;;;;5089771;28;20011;-86
2022/03/11 08:05:39;;;;;;;;;;;8.30;57.40;;;;;;5111505;22;19927;-87
2022/03/11 08:08:07;;;;;;;;;;;8.40;57.30;;;;;;5099142;28;20469;-87
2022/03/11 08:10:35;;;;;;;;;;;8.40;56.80;;;;;;5101240;28;19920;-87
2022/03/11 08:13:00;;;;;;;;;;;8.40;57.10;;;;;;5106346;28;19957;-87
2022/03/11 08:15:26;;;;;;;;;;;8.40;56.30;;;;;;5108259;28;19920;-86
2022/03/11 08:17:52;;;;;;;;;;;8.40;56.40;;;;;;5109830;28;19919;-86
2022/03/11 08:20:18;;;;;;;;;;;8.50;56.00;;;;;;5109727;28;19937;-86
2022/03/11 08:22:45;;;;;;;;;;;8.50;56.00;;;;;;5106790;28;20293;-86
2022/03/11 08:25:11;;;;;;;;;;;8.50;56.20;;;;;;5111282;28;19912;-86
2022/03/11 08:27:37;;;;;;;;;;;8.50;55.90;;;;;;5107653;28;19916;-87
2022/03/11 08:30:04;;;;;;;;;;;8.40;55.80;;;;;;5111641;28;19919;-87
2022/03/11 08:32:30;;;;;;;;;;;8.40;56.10;;;;;;5106491;28;19919;-87
2022/03/11 08:34:55;;;;;;;;;;;8.40;56.40;;;;;;5108518;28;19912;-87
2022/03/11 08:37:21;;;;;;;;;;;8.50;56.60;;;;;;5110274;28;19919;-87
2022/03/11 08:39:46;;;;;;;;;;;8.70;57.70;;;;;;5107426;28;20061;-87
2022/03/11 08:42:12;;;;;;;;;;;8.80;56.10;;;;;;5109083;28;20273;-87
2022/03/11 08:44:37;;;;;;;;;;;8.90;55.30;;;;;;5109571;28;19911;-87
2022/03/11 08:47:03;;;;;;;;;;;8.90;54.70;;;;;;5103044;28;20008;-87
2022/03/11 08:49:29;;;;;;;;;;;8.90;55.10;;;;;;5107265;28;19912;-86
2022/03/11 08:51:54;;;;;;;;;;;8.70;55.10;;;;;;5105898;28;19912;-86
2022/03/11 08:54:20;;;;;;;;;;;8.60;55.00;;;;;;5110899;28;19912;-86
2022/03/11 08:56:46;;;;;;;;;;;8.60;56.00;;;;;;5111125;28;19918;-86
2022/03/11 08:59:12;;;;;;;;;;;8.50;56.30;;;;;;5107730;28;20131;-86
2022/03/11 09:01:37;;;;;;;;;;;8.50;55.80;;;;;;5107792;28;19927;-86
2022/03/11 09:04:03;;;;;;;;;;;8.50;55.60;;;;;;5110121;28;20003;-86
2022/03/11 09:06:30;;;;;;;;;;;8.40;55.30;;;;;;5112910;28;19965;-86
2022/03/11 09:08:56;;;;;;;;;;;8.60;55.20;;;;;;5110635;28;19918;-87
2022/03/11 09:11:21;;;;;;;;;;;8.70;55.20;;;;;;5109686;28;19919;-86
2022/03/11 09:13:49;;;;;;;;;;;8.80;55.10;;;;;;5111576;28;20361;-87
2022/03/11 09:16:14;;;;;;;;;;;8.90;55.20;;;;;;5106130;28;19920;-87
2022/03/11 09:18:40;;;;;;;;;;;9.00;54.80;;;;;;5114102;28;19924;-87
2022/03/11 09:21:06;;;;;;;;;;;9.10;54.60;;;;;;5115102;27;20155;-87
2022/03/11 09:23:31;;;;;;;;;;;9.30;53.20;;;;;;5115163;28;19916;-86
2022/03/11 09:25:57;;;;;;;;;;;9.40;52.40;;;;;;5109527;28;19920;-86
2022/03/11 09:28:23;;;;;;;;;;;9.20;52.40;;;;;;5107380;28;19918;-86
2022/03/11 09:30:49;;;;;;;;;;;9.10;53.20;;;;;;5111853;28;19919;-86
2022/03/11 09:33:14;;;;;;;;;;;9.10;53.10;;;;;;5114090;28;19912;-86
2022/03/11 09:35:40;;;;;;;;;;;9.00;53.40;;;;;;5112354;28;20377;-86
2022/03/11 09:38:05;;;;;;;;;;;8.90;53.40;;;;;;5110601;28;20357;-86
2022/03/11 09:40:32;;;;;;;;;;;8.90;53.40;;;;;;5110025;28;20286;-86
2022/03/11 09:42:58;;;;;;;;;;;8.90;53.40;;;;;;5111599;27;19962;-86
2022/03/11 09:45:25;;;;;;;;;;;9.10;52.50;;;;;;5114056;28;19927;-86
2022/03/11 09:47:51;;;;;;;;;;;9.30;52.40;;;;;;5114487;27;19912;-86
2022/03/11 09:50:17;;;;;;;;;;;9.40;52.60;;;;;;5107655;27;20020;-87
2022/03/11 09:52:44;;;;;;;;;;;9.40;52.50;;;;;;5109450;28;19934;-87
2022/03/11 09:55:10;;;;;;;;;;;9.50;52.30;;;;;;5109939;28;19911;-86
2022/03/11 09:57:36;;;;;;;;;;;9.60;50.70;;;;;;5111754;27;19951;-86
2022/03/11 10:00:04;;;;;;;;;;;9.60;51.10;;;;;;5111514;28;19991;-86
2022/03/11 10:02:29;;;;;;;;;;;9.70;51.10;;;;;;5109469;27;19936;-86
2022/03/11 10:04:58;;;;;;;;;;;9.90;51.00;;;;;;5109951;27;20334;-86
2022/03/11 10:07:24;;;;;;;;;;;9.80;50.20;;;;;;5112288;27;20399;-86
2022/03/11 10:09:50;;;;;;;;;;;9.90;49.60;;;;;;5107543;27;19964;-86
2022/03/11 10:12:20;;;;;;;;;;;9.60;50.30;;;;;;5109405;27;19998;-86
2022/03/11 10:14:53;;;;;;;;;;;9.50;50.30;;;;;;5114051;28;20000;-86
2022/03/11 10:17:19;;;;;;;;;;;9.40;50.60;;;;;;5109595;28;19920;-86
2022/03/11 10:19:55;;;;;;;;;;;9.50;50.50;;;;;;5110772;27;20368;-86
2022/03/11 10:22:24;;;;;;;;;;;9.40;51.40;;;;;;5112003;27;19912;-86
2022/03/11 10:24:50;;;;;;;;;;;9.40;50.90;;;;;;5119325;27;20398;-86
2022/03/11 10:27:16;;;;;;;;;;;9.50;50.80;;;;;;5111398;27;19999;-86
2022/03/11 10:29:41;;;;;;;;;;;9.70;50.50;;;;;;5112067;27;19911;-86
2022/03/11 10:32:07;;;;;;;;;;;9.80;50.40;;;;;;5106572;28;19920;-86
2022/03/11 10:34:34;;;;;;;;;;;9.90;49.80;;;;;;5114476;27;19957;-86
2022/03/11 10:37:00;;;;;;;;;;;9.90;49.70;;;;;;5117128;27;19958;-86
2022/03/11 10:39:26;;;;;;;;;;;9.90;49.00;;;;;;5108958;28;20334;-86
2022/03/11 10:41:56;;;;;;;;;;;9.90;49.50;;;;;;5112440;27;19998;-86
2022/03/11 10:44:26;;;;;;;;;;;9.80;50.20;;;;;;5114225;27;19919;-86
2022/03/11 10:46:53;;;;;;;;;;;9.90;49.20;;;;;;5112053;27;19972;-86
2022/03/11 10:49:26;;;;;;;;;;;10.00;49.20;;;;;;5114494;27;19965;-86
2022/03/11 10:51:52;;;;;;;;;;;10.00;48.90;;;;;;5110207;27;20369;-86
2022/03/11 10:54:18;;;;;;;;;;;9.90;48.80;;;;;;5107896;28;19912;-86
2022/03/11 10:56:44;;;;;;;;;;;9.70;49.30;;;;;;5111738;27;19919;-86
2022/03/11 10:59:22;;;;;;;;;;;9.60;49.60;;;;;;5109165;27;19998;-86
2022/03/11 11:01:48;;;;;;;;;;;9.50;49.70;;;;;;5110776;28;19916;-86
2022/03/11 11:04:14;;;;;;;;;;;9.50;49.90;;;;;;5105214;28;19928;-86
2022/03/11 11:06:40;;;;;;;;;;;9.60;49.70;;;;;;5108768;28;19920;-86
2022/03/11 11:09:06;;;;;;;;;;;9.90;49.80;;;;;;5112508;28;19964;-86
2022/03/11 11:11:32;;;;;;;;;;;10.00;49.20;;;;;;5107203;28;19916;-86
2022/03/11 11:13:59;;;;;;;;;;;10.20;48.90;;;;;;5108315;28;19919;-86
2022/03/11 11:16:26;;;;;;;;;;;10.40;48.50;;;;;;5114262;28;19959;-86
2022/03/11 11:18:52;;;;;;;;;;;10.50;48.30;;;;;;5114086;28;19935;-87
2022/03/11 11:21:24;;;;;;;;;;;10.70;48.50;;;;;;5114328;28;20378;-86
2022/03/11 11:23:56;;;;;;;;;;;10.80;47.70;;;;;;5113705;28;20001;-86
2022/03/11 11:26:23;;;;;;;;;;;10.90;46.80;;;;;;5114399;27;19918;-86
2022/03/11 11:28:52;;;;;;;;;;;10.90;46.20;;;;;;5114328;28;19911;-86
2022/03/11 11:31:18;;;;;;;;;;;10.60;47.90;;;;;;5114548;28;19915;-86
2022/03/11 11:33:44;;;;;;;;;;;10.60;47.70;;;;;;5114351;28;19915;-86
2022/03/11 11:36:10;;;;;;;;;;;10.40;48.80;;;;;;5113776;28;19919;-86
2022/03/11 11:38:37;;;;;;;;;;;10.40;48.50;;;;;;5113778;28;19911;-86
2022/03/11 11:41:23;;;;;;;;;;;10.40;48.70;;;;;;5114226;28;19915;-86
2022/03/11 11:43:59;;;;;;;;;;;10.70;49.20;;;;;;5114138;28;19914;-86
2022/03/11 11:46:25;;;;;;;;;;;11.00;46.80;;;;;;5113636;28;19957;-86
2022/03/11 11:48:51;;;;;;;;;;;11.20;46.50;;;;;;5114081;28;19951;-87
2022/03/11 11:51:20;;;;;;;;;;;11.30;46.30;;;;;;5113143;28;19916;-87
2022/03/11 11:53:46;;;;;;;;;;;11.50;46.20;;;;;;5114013;28;20361;-86
2022/03/11 11:56:30;;;;;;;;;;;11.70;45.40;;;;;;5114242;28;20003;-86
2022/03/11 11:58:56;;;;;;;;;;;11.70;45.50;;;;;;5113678;28;19911;-87
2022/03/11 12:01:40;;;;;;;;;;;11.60;45.80;;;;;;5113865;28;19908;-86
2022/03/11 12:04:24;;;;;;;;;;;11.40;46.30;;;;;;5113350;28;19927;-86
2022/03/11 12:06:57;;;;;;;;;;;11.40;47.50;;;;;;5112859;28;20281;-86
2022/03/11 12:09:38;;;;;;;;;;;11.40;46.70;;;;;;5128801;27;19915;-86
2022/03/11 12:12:04;;;;;;;;;;;11.40;47.50;;;;;;5113132;28;19911;-86
2022/03/11 12:14:30;;;;;;;;;;;11.60;47.00;;;;;;5113486;28;19912;-86
2022/03/11 12:17:03;;;;;;;;;;;11.90;45.80;;;;;;5113736;28;19908;-87
2022/03/11 12:19:39;;;;;;;;;;;12.20;45.40;;;;;;5113540;28;20357;-87
2022/03/11 12:22:25;;;;;;;;;;;12.60;44.30;;;;;;5113302;28;20296;-87
2022/03/11 12:24:57;;;;;;;;;;;12.90;43.30;;;;;;5112286;28;19912;-87
2022/03/11 12:27:41;;;;;;;;;;;13.10;42.40;;;;;;5111751;28;20002;-87
2022/03/11 12:30:07;;;;;;;;;;;13.40;42.40;;;;;;5097478;28;19916;-86
2022/03/11 12:32:33;;;;;;;;;;;13.80;42.40;;;;;;5102565;28;19918;-86
2022/03/11 12:34:58;;;;;;;;;;;13.80;40.90;;;;;;5109722;27;20365;-87
2022/03/11 12:37:26;;;;;;;;;;;13.90;41.40;;;;;;5111531;27;20273;-86
2022/03/11 12:39:52;;;;;;;;;;;14.10;41.70;;;;;;5108915;27;20345;-86
2022/03/11 12:42:17;;;;;;;;;;;14.00;42.30;;;;;;5107897;27;20018;-86
2022/03/11 12:44:46;;;;;;;;;;;13.90;41.00;;;;;;5114318;28;19918;-86
2022/03/11 12:47:16;;;;;;;;;;;13.70;41.20;;;;;;5104752;28;19923;-86
2022/03/11 12:49:41;;;;;;;;;;;13.50;41.60;;;;;;5115493;27;19912;-86
2022/03/11 12:52:17;;;;;;;;;;;13.60;41.00;;;;;;5111631;28;19945;-86
2022/03/11 12:54:42;;;;;;;;;;;14.00;40.00;;;;;;5106577;28;19912;-86
2022/03/11 12:57:08;;;;;;;;;;;14.40;39.70;;;;;;5109997;27;20327;-87
2022/03/11 12:59:33;;;;;;;;;;;14.70;39.20;;;;;;5113840;28;20010;-87
2022/03/11 13:01:59;;;;;;;;;;;14.90;38.50;;;;;;5108067;28;20342;-87
2022/03/11 13:04:25;;;;;;;;;;;15.20;37.30;;;;;;5110550;27;20292;-87
2022/03/11 13:06:51;;;;;;;;;;;15.30;37.80;;;;;;5111745;27;19965;-87
2022/03/11 13:09:20;;;;;;;;;;;15.40;37.60;;;;;;5119048;27;20361;-87
2022/03/11 13:11:46;;;;;;;;;;;15.30;37.60;;;;;;5111401;27;19957;-86
2022/03/11 13:14:11;;;;;;;;;;;15.20;37.70;;;;;;5108971;28;19912;-86
2022/03/11 13:16:37;;;;;;;;;;;15.10;37.10;;;;;;5113302;27;20046;-86
2022/03/11 13:19:04;;;;;;;;;;;15.20;37.50;;;;;;5112659;27;19924;-86
2022/03/11 13:21:30;;;;;;;;;;;15.30;36.50;;;;;;5111289;27;19912;-86
2022/03/11 13:23:55;;;;;;;;;;;16.00;37.10;;;;;;5106748;27;19912;-86
2022/03/11 13:26:22;;;;;;;;;;;16.30;36.40;;;;;;5111560;27;20068;-86
2022/03/11 13:28:49;;;;;;;;;;;16.30;36.80;;;;;;5120991;27;19922;-87
2022/03/11 13:31:20;;;;;;;;;;;16.30;36.10;;;;;;5115571;27;19912;-87
2022/03/11 13:33:47;;;;;;;;;;;17.10;34.50;;;;;;5120018;27;19920;-87
2022/03/11 13:36:15;;;;;;;;;;;18.20;32.80;;;;;;5114892;28;19916;-87
2022/03/11 13:38:44;;;;;;;;;;;18.80;31.90;;;;;;5113242;28;19912;-87
2022/03/11 13:41:11;;;;;;;;;;;19.10;31.00;;;;;;5113296;28;19957;-87
2022/03/11 13:43:37;;;;;;;;;;;19.30;30.70;;;;;;5112603;27;19918;-87
2022/03/11 13:46:03;;;;;;;;;;;19.20;31.00;;;;;;5109083;27;19932;-87
2022/03/11 13:48:33;;;;;;;;;;;18.90;31.90;;;;;;5110697;27;20410;-87
2022/03/11 13:51:03;;;;;;;;;;;18.10;32.30;;;;;;5112379;28;19919;-86
2022/03/11 13:53:29;;;;;;;;;;;17.00;34.00;;;;;;5115265;27;19930;-86
2022/03/11 13:55:54;;;;;;;;;;;16.10;36.30;;;;;;5120327;27;19911;-86
2022/03/11 13:58:22;;;;;;;;;;;15.70;36.70;;;;;;5108077;28;19999;-86
2022/03/11 14:00:48;;;;;;;;;;;16.00;37.80;;;;;;5106816;27;19928;-87
2022/03/11 14:03:13;;;;;;;;;;;16.70;37.30;;;;;;5106743;28;19912;-87
2022/03/11 14:05:40;;;;;;;;;;;17.30;34.90;;;;;;5111171;28;19924;-87
2022/03/11 14:08:05;;;;;;;;;;;17.90;33.40;;;;;;5106562;28;19957;-87
2022/03/11 14:10:38;;;;;;;;;;;18.60;32.70;;;;;;5106441;28;19915;-87
2022/03/11 14:13:05;;;;;;;;;;;18.80;31.90;;;;;;5105075;28;19912;-87
2022/03/11 14:15:32;;;;;;;;;;;18.80;32.40;;;;;;5105543;28;19956;-87
2022/03/11 14:17:58;;;;;;;;;;;19.00;31.50;;;;;;5107541;27;19916;-87
2022/03/11 14:20:23;;;;;;;;;;;18.90;31.80;;;;;;5107994;28;20357;-87
2022/03/11 14:22:49;;;;;;;;;;;18.50;32.00;;;;;;5109624;27;19915;-87